sensor_id;sensor_type;location;lat;lon;timestamp;P1;durP1;ratioP1;P2;durP2;ratioP2
40621;SDS011;26324;52.040;11.528;2023-02-28T00:01:07;2.70;;;1.25;;
40621;SDS011;26324;52.040;11.528;2023-02-28T00:03:35;2.10;;;0.90;;
40621;SDS011;26324;52.040;11.528;2023-02-28T00:06:03;1.48;;;0.70;;
40621;SDS011;26324;52.040;11.528;2023-02-28T00:08:31;2.35;;;0.95;;
40621;SDS011;26324;52.040;11.528;2023-02-28T00:11:05;1.02;;;0.80;;
40621;SDS011;26324;52.040;11.528;2023-02-28T00:13:35;1.67;;;0.55;;
40621;SDS011;26324;52.040;11.528;2023-02-28T00:16:07;1.58;;;1.13;;
40621;SDS011;26324;52.040;11.528;2023-02-28T00:18:40;4.03;;;1.50;;
40621;SDS011;26324;52.040;11.528;2023-02-28T00:21:07;3.75;;;1.88;;
40621;SDS011;26324;52.040;11.528;2023-02-28T00:23:35;2.47;;;1.23;;
40621;SDS011;26324;52.040;11.528;2023-02-28T00:26:03;3.13;;;1.10;;
40621;SDS011;26324;52.040;11.528;2023-02-28T00:28:31;2.50;;;0.77;;
40621;SDS011;26324;52.040;11.528;2023-02-28T00:30:58;4.32;;;1.00;;
40621;SDS011;26324;52.040;11.528;2023-02-28T00:36:02;1.25;;;0.47;;
40621;SDS011;26324;52.040;11.528;2023-02-28T00:38:30;3.17;;;1.33;;
40621;SDS011;26324;52.040;11.528;2023-02-28T00:41:00;1.13;;;0.52;;
40621;SDS011;26324;52.040;11.528;2023-02-28T00:43:32;1.38;;;0.73;;
40621;SDS011;26324;52.040;11.528;2023-02-28T00:46:01;1.55;;;0.70;;
40621;SDS011;26324;52.040;11.528;2023-02-28T00:48:29;2.40;;;1.40;;
40621;SDS011;26324;52.040;11.528;2023-02-28T00:50:57;1.73;;;0.93;;
40621;SDS011;26324;52.040;11.528;2023-02-28T00:53:24;2.20;;;0.85;;
40621;SDS011;26324;52.040;11.528;2023-02-28T00:55:52;2.75;;;1.30;;
40621;SDS011;26324;52.040;11.528;2023-02-28T00:58:20;1.48;;;0.70;;
40621;SDS011;26324;52.040;11.528;2023-02-28T01:00:47;1.40;;;1.05;;
40621;SDS011;26324;52.040;11.528;2023-02-28T01:03:16;1.70;;;0.95;;
40621;SDS011;26324;52.040;11.528;2023-02-28T01:05:45;2.20;;;1.23;;
40621;SDS011;26324;52.040;11.528;2023-02-28T01:08:13;0.70;;;0.70;;
40621;SDS011;26324;52.040;11.528;2023-02-28T01:10:41;2.80;;;1.23;;
40621;SDS011;26324;52.040;11.528;2023-02-28T01:13:09;1.33;;;0.70;;
40621;SDS011;26324;52.040;11.528;2023-02-28T01:15:37;1.33;;;1.05;;
40621;SDS011;26324;52.040;11.528;2023-02-28T01:18:07;1.23;;;1.10;;
40621;SDS011;26324;52.040;11.528;2023-02-28T01:20:36;2.95;;;1.55;;
40621;SDS011;26324;52.040;11.528;2023-02-28T01:23:04;4.70;;;1.00;;
40621;SDS011;26324;52.040;11.528;2023-02-28T01:25:34;2.85;;;1.15;;
40621;SDS011;26324;52.040;11.528;2023-02-28T01:28:04;1.23;;;0.57;;
40621;SDS011;26324;52.040;11.528;2023-02-28T01:30:32;2.30;;;0.85;;
40621;SDS011;26324;52.040;11.528;2023-02-28T01:32:59;1.40;;;0.90;;
40621;SDS011;26324;52.040;11.528;2023-02-28T01:35:27;2.45;;;0.68;;
40621;SDS011;26324;52.040;11.528;2023-02-28T01:37:54;0.70;;;0.70;;
40621;SDS011;26324;52.040;11.528;2023-02-28T01:40:24;0.35;;;0.25;;
40621;SDS011;26324;52.040;11.528;2023-02-28T01:42:52;1.45;;;0.70;;
40621;SDS011;26324;52.040;11.528;2023-02-28T01:45:26;1.50;;;0.60;;
40621;SDS011;26324;52.040;11.528;2023-02-28T01:47:57;0.95;;;0.57;;
40621;SDS011;26324;52.040;11.528;2023-02-28T01:50:30;1.85;;;0.93;;
40621;SDS011;26324;52.040;11.528;2023-02-28T01:53:04;0.82;;;0.50;;
40621;SDS011;26324;52.040;11.528;2023-02-28T01:55:34;1.17;;;0.80;;
40621;SDS011;26324;52.040;11.528;2023-02-28T02:00:32;0.63;;;0.40;;
40621;SDS011;26324;52.040;11.528;2023-02-28T02:03:01;1.17;;;0.30;;
40621;SDS011;26324;52.040;11.528;2023-02-28T02:08:09;0.85;;;0.77;;
40621;SDS011;26324;52.040;11.528;2023-02-28T02:10:46;1.40;;;0.93;;
40621;SDS011;26324;52.040;11.528;2023-02-28T02:13:33;1.73;;;0.98;;
40621;SDS011;26324;52.040;11.528;2023-02-28T02:34:17;1.75;;;1.08;;
40621;SDS011;26324;52.040;11.528;2023-02-28T02:37:25;2.08;;;0.90;;
40621;SDS011;26324;52.040;11.528;2023-02-28T02:40:03;1.55;;;0.90;;
40621;SDS011;26324;52.040;11.528;2023-02-28T02:42:55;0.60;;;0.40;;
40621;SDS011;26324;52.040;11.528;2023-02-28T02:48:21;1.45;;;0.95;;
40621;SDS011;26324;52.040;11.528;2023-02-28T02:50:54;0.60;;;0.40;;
40621;SDS011;26324;52.040;11.528;2023-02-28T02:53:27;0.50;;;0.47;;
40621;SDS011;26324;52.040;11.528;2023-02-28T02:56:01;4.88;;;1.00;;
40621;SDS011;26324;52.040;11.528;2023-02-28T02:58:32;0.55;;;0.52;;
40621;SDS011;26324;52.040;11.528;2023-02-28T03:01:10;2.03;;;0.93;;
40621;SDS011;26324;52.040;11.528;2023-02-28T03:03:42;1.23;;;0.85;;
40621;SDS011;26324;52.040;11.528;2023-02-28T03:06:12;0.93;;;0.43;;
40621;SDS011;26324;52.040;11.528;2023-02-28T03:08:41;0.98;;;0.57;;
40621;SDS011;26324;52.040;11.528;2023-02-28T03:11:12;1.13;;;0.68;;
40621;SDS011;26324;52.040;11.528;2023-02-28T03:16:35;2.55;;;1.05;;
40621;SDS011;26324;52.040;11.528;2023-02-28T03:19:09;1.63;;;0.82;;
40621;SDS011;26324;52.040;11.528;2023-02-28T03:24:11;2.20;;;0.80;;
40621;SDS011;26324;52.040;11.528;2023-02-28T03:26:55;0.50;;;0.50;;
40621;SDS011;26324;52.040;11.528;2023-02-28T03:32:04;2.13;;;0.95;;
40621;SDS011;26324;52.040;11.528;2023-02-28T03:34:49;0.95;;;0.70;;
40621;SDS011;26324;52.040;11.528;2023-02-28T03:37:23;3.17;;;0.63;;
40621;SDS011;26324;52.040;11.528;2023-02-28T03:42:53;2.00;;;0.95;;
40621;SDS011;26324;52.040;11.528;2023-02-28T03:45:28;1.48;;;0.98;;
40621;SDS011;26324;52.040;11.528;2023-02-28T03:47:58;1.30;;;0.80;;
40621;SDS011;26324;52.040;11.528;2023-02-28T03:50:37;1.98;;;0.75;;
40621;SDS011;26324;52.040;11.528;2023-02-28T03:53:10;0.98;;;0.65;;
40621;SDS011;26324;52.040;11.528;2023-02-28T03:55:42;0.63;;;0.32;;
40621;SDS011;26324;52.040;11.528;2023-02-28T03:58:35;1.13;;;0.85;;
40621;SDS011;26324;52.040;11.528;2023-02-28T04:03:54;0.75;;;0.63;;
40621;SDS011;26324;52.040;11.528;2023-02-28T04:06:27;0.80;;;0.70;;
40621;SDS011;26324;52.040;11.528;2023-02-28T04:08:57;0.75;;;0.55;;
40621;SDS011;26324;52.040;11.528;2023-02-28T04:11:31;1.58;;;0.60;;
40621;SDS011;26324;52.040;11.528;2023-02-28T04:14:03;1.35;;;0.68;;
40621;SDS011;26324;52.040;11.528;2023-02-28T04:16:32;0.40;;;0.40;;
40621;SDS011;26324;52.040;11.528;2023-02-28T04:19:02;1.67;;;0.85;;
40621;SDS011;26324;52.040;11.528;2023-02-28T04:21:33;1.63;;;0.63;;
40621;SDS011;26324;52.040;11.528;2023-02-28T04:24:15;2.53;;;0.85;;
40621;SDS011;26324;52.040;11.528;2023-02-28T04:26:45;3.33;;;0.50;;
40621;SDS011;26324;52.040;11.528;2023-02-28T04:29:17;1.75;;;0.80;;
40621;SDS011;26324;52.040;11.528;2023-02-28T04:31:50;0.20;;;0.10;;
40621;SDS011;26324;52.040;11.528;2023-02-28T04:34:20;1.85;;;0.88;;
40621;SDS011;26324;52.040;11.528;2023-02-28T04:36:48;0.75;;;0.38;;
40621;SDS011;26324;52.040;11.528;2023-02-28T04:39:37;0.50;;;0.50;;
40621;SDS011;26324;52.040;11.528;2023-02-28T04:42:04;0.60;;;0.45;;
40621;SDS011;26324;52.040;11.528;2023-02-28T04:44:32;4.13;;;1.38;;
40621;SDS011;26324;52.040;11.528;2023-02-28T04:46:59;1.20;;;1.10;;
40621;SDS011;26324;52.040;11.528;2023-02-28T04:49:26;1.10;;;0.63;;
40621;SDS011;26324;52.040;11.528;2023-02-28T04:51:54;1.05;;;0.60;;
40621;SDS011;26324;52.040;11.528;2023-02-28T04:54:22;1.65;;;1.05;;
40621;SDS011;26324;52.040;11.528;2023-02-28T04:56:49;3.22;;;0.82;;
40621;SDS011;26324;52.040;11.528;2023-02-28T04:59:17;2.65;;;1.00;;
40621;SDS011;26324;52.040;11.528;2023-02-28T05:01:45;5.13;;;1.50;;
40621;SDS011;26324;52.040;11.528;2023-02-28T05:04:14;1.13;;;0.60;;
40621;SDS011;26324;52.040;11.528;2023-02-28T05:06:41;1.38;;;0.98;;
40621;SDS011;26324;52.040;11.528;2023-02-28T05:09:09;2.03;;;0.95;;
40621;SDS011;26324;52.040;11.528;2023-02-28T05:11:39;5.05;;;0.68;;
40621;SDS011;26324;52.040;11.528;2023-02-28T05:14:13;0.50;;;0.50;;
40621;SDS011;26324;52.040;11.528;2023-02-28T05:16:41;1.02;;;0.50;;
40621;SDS011;26324;52.040;11.528;2023-02-28T05:19:12;0.93;;;0.82;;
40621;SDS011;26324;52.040;11.528;2023-02-28T05:21:40;2.80;;;0.80;;
40621;SDS011;26324;52.040;11.528;2023-02-28T05:24:14;3.65;;;1.02;;
40621;SDS011;26324;52.040;11.528;2023-02-28T05:26:42;1.58;;;0.75;;
40621;SDS011;26324;52.040;11.528;2023-02-28T05:29:09;1.10;;;0.38;;
40621;SDS011;26324;52.040;11.528;2023-02-28T05:31:37;3.05;;;1.42;;
40621;SDS011;26324;52.040;11.528;2023-02-28T05:34:08;0.95;;;0.80;;
40621;SDS011;26324;52.040;11.528;2023-02-28T05:36:38;1.10;;;0.98;;
40621;SDS011;26324;52.040;11.528;2023-02-28T05:39:07;1.88;;;0.50;;
40621;SDS011;26324;52.040;11.528;2023-02-28T05:41:44;2.53;;;1.17;;
40621;SDS011;26324;52.040;11.528;2023-02-28T05:44:12;2.03;;;0.70;;
40621;SDS011;26324;52.040;11.528;2023-02-28T05:46:42;1.30;;;0.82;;
40621;SDS011;26324;52.040;11.528;2023-02-28T05:52:03;2.08;;;0.77;;
40621;SDS011;26324;52.040;11.528;2023-02-28T05:54:30;2.17;;;1.02;;
40621;SDS011;26324;52.040;11.528;2023-02-28T05:56:57;1.33;;;0.77;;
40621;SDS011;26324;52.040;11.528;2023-02-28T05:59:24;1.35;;;1.20;;
40621;SDS011;26324;52.040;11.528;2023-02-28T06:01:52;1.05;;;0.95;;
40621;SDS011;26324;52.040;11.528;2023-02-28T06:04:20;3.42;;;1.30;;
40621;SDS011;26324;52.040;11.528;2023-02-28T06:06:57;3.08;;;1.25;;
40621;SDS011;26324;52.040;11.528;2023-02-28T06:09:25;2.50;;;1.30;;
40621;SDS011;26324;52.040;11.528;2023-02-28T06:11:53;0.65;;;0.52;;
40621;SDS011;26324;52.040;11.528;2023-02-28T06:14:20;0.35;;;0.35;;
40621;SDS011;26324;52.040;11.528;2023-02-28T06:16:48;0.95;;;0.77;;
40621;SDS011;26324;52.040;11.528;2023-02-28T06:19:15;2.78;;;0.82;;
40621;SDS011;26324;52.040;11.528;2023-02-28T06:21:43;0.63;;;0.47;;
40621;SDS011;26324;52.040;11.528;2023-02-28T06:24:10;1.13;;;0.98;;
40621;SDS011;26324;52.040;11.528;2023-02-28T06:26:38;2.25;;;1.40;;
40621;SDS011;26324;52.040;11.528;2023-02-28T06:31:38;3.25;;;1.23;;
40621;SDS011;26324;52.040;11.528;2023-02-28T06:34:06;2.22;;;0.85;;
40621;SDS011;26324;52.040;11.528;2023-02-28T06:36:33;1.00;;;0.63;;
40621;SDS011;26324;52.040;11.528;2023-02-28T06:39:01;1.85;;;0.60;;
40621;SDS011;26324;52.040;11.528;2023-02-28T06:41:28;2.35;;;0.93;;
40621;SDS011;26324;52.040;11.528;2023-02-28T06:46:32;1.98;;;0.52;;
40621;SDS011;26324;52.040;11.528;2023-02-28T06:48:59;2.45;;;0.70;;
40621;SDS011;26324;52.040;11.528;2023-02-28T06:51:27;0.22;;;0.22;;
40621;SDS011;26324;52.040;11.528;2023-02-28T06:53:54;1.40;;;1.00;;
40621;SDS011;26324;52.040;11.528;2023-02-28T06:56:21;10.82;;;1.27;;
40621;SDS011;26324;52.040;11.528;2023-02-28T06:58:50;2.53;;;1.60;;
40621;SDS011;26324;52.040;11.528;2023-02-28T07:01:19;3.08;;;1.30;;
40621;SDS011;26324;52.040;11.528;2023-02-28T07:03:49;3.17;;;1.10;;
40621;SDS011;26324;52.040;11.528;2023-02-28T07:06:19;8.00;;;2.30;;
40621;SDS011;26324;52.040;11.528;2023-02-28T07:08:52;3.58;;;1.65;;
40621;SDS011;26324;52.040;11.528;2023-02-28T07:11:22;4.90;;;2.10;;
40621;SDS011;26324;52.040;11.528;2023-02-28T07:13:55;1.25;;;0.95;;
40621;SDS011;26324;52.040;11.528;2023-02-28T07:16:23;2.05;;;1.35;;
40621;SDS011;26324;52.040;11.528;2023-02-28T07:18:52;3.28;;;1.52;;
40621;SDS011;26324;52.040;11.528;2023-02-28T07:21:20;1.55;;;1.35;;
40621;SDS011;26324;52.040;11.528;2023-02-28T07:23:48;3.53;;;1.52;;
40621;SDS011;26324;52.040;11.528;2023-02-28T07:26:16;1.95;;;1.52;;
40621;SDS011;26324;52.040;11.528;2023-02-28T07:28:46;2.67;;;1.00;;
40621;SDS011;26324;52.040;11.528;2023-02-28T07:31:14;0.50;;;0.43;;
40621;SDS011;26324;52.040;11.528;2023-02-28T07:33:45;4.93;;;1.25;;
40621;SDS011;26324;52.040;11.528;2023-02-28T07:36:14;5.70;;;1.20;;
40621;SDS011;26324;52.040;11.528;2023-02-28T07:38:47;2.10;;;0.90;;
40621;SDS011;26324;52.040;11.528;2023-02-28T07:41:17;1.20;;;0.93;;
40621;SDS011;26324;52.040;11.528;2023-02-28T07:43:46;2.47;;;1.15;;
40621;SDS011;26324;52.040;11.528;2023-02-28T07:46:14;2.22;;;1.10;;
40621;SDS011;26324;52.040;11.528;2023-02-28T07:48:43;2.85;;;1.42;;
40621;SDS011;26324;52.040;11.528;2023-02-28T07:51:11;2.28;;;1.10;;
40621;SDS011;26324;52.040;11.528;2023-02-28T07:53:38;3.28;;;1.30;;
40621;SDS011;26324;52.040;11.528;2023-02-28T07:56:06;1.38;;;0.85;;
40621;SDS011;26324;52.040;11.528;2023-02-28T07:58:37;3.22;;;0.93;;
40621;SDS011;26324;52.040;11.528;2023-02-28T08:01:05;1.25;;;0.70;;
40621;SDS011;26324;52.040;11.528;2023-02-28T08:03:34;2.28;;;0.80;;
40621;SDS011;26324;52.040;11.528;2023-02-28T08:06:03;1.42;;;1.00;;
40621;SDS011;26324;52.040;11.528;2023-02-28T08:08:30;1.35;;;0.70;;
40621;SDS011;26324;52.040;11.528;2023-02-28T08:11:02;2.33;;;0.88;;
40621;SDS011;26324;52.040;11.528;2023-02-28T08:13:30;1.35;;;0.82;;
40621;SDS011;26324;52.040;11.528;2023-02-28T08:15:57;1.55;;;0.88;;
40621;SDS011;26324;52.040;11.528;2023-02-28T08:18:24;1.92;;;1.00;;
40621;SDS011;26324;52.040;11.528;2023-02-28T08:20:52;3.75;;;1.17;;
40621;SDS011;26324;52.040;11.528;2023-02-28T08:23:20;1.67;;;0.82;;
40621;SDS011;26324;52.040;11.528;2023-02-28T08:25:52;2.20;;;0.80;;
40621;SDS011;26324;52.040;11.528;2023-02-28T08:30:53;2.20;;;1.05;;
40621;SDS011;26324;52.040;11.528;2023-02-28T08:33:21;3.05;;;1.42;;
40621;SDS011;26324;52.040;11.528;2023-02-28T08:35:52;2.53;;;0.88;;
40621;SDS011;26324;52.040;11.528;2023-02-28T08:38:21;2.25;;;1.23;;
40621;SDS011;26324;52.040;11.528;2023-02-28T08:40:49;4.72;;;1.20;;
40621;SDS011;26324;52.040;11.528;2023-02-28T08:43:17;2.63;;;1.00;;
40621;SDS011;26324;52.040;11.528;2023-02-28T08:45:45;2.15;;;1.25;;
40621;SDS011;26324;52.040;11.528;2023-02-28T08:48:12;1.73;;;1.00;;
40621;SDS011;26324;52.040;11.528;2023-02-28T08:50:40;1.83;;;0.90;;
40621;SDS011;26324;52.040;11.528;2023-02-28T08:53:07;2.08;;;1.17;;
40621;SDS011;26324;52.040;11.528;2023-02-28T08:55:34;2.85;;;1.15;;
40621;SDS011;26324;52.040;11.528;2023-02-28T08:58:02;0.73;;;0.43;;
40621;SDS011;26324;52.040;11.528;2023-02-28T09:00:29;2.55;;;1.20;;
40621;SDS011;26324;52.040;11.528;2023-02-28T09:02:56;1.75;;;1.10;;
40621;SDS011;26324;52.040;11.528;2023-02-28T09:05:25;1.60;;;0.90;;
40621;SDS011;26324;52.040;11.528;2023-02-28T09:07:52;2.20;;;0.82;;
40621;SDS011;26324;52.040;11.528;2023-02-28T09:10:19;1.70;;;1.02;;
40621;SDS011;26324;52.040;11.528;2023-02-28T09:12:46;3.90;;;1.00;;
40621;SDS011;26324;52.040;11.528;2023-02-28T09:15:15;1.27;;;0.90;;
40621;SDS011;26324;52.040;11.528;2023-02-28T09:17:42;0.98;;;0.68;;
40621;SDS011;26324;52.040;11.528;2023-02-28T09:20:12;1.35;;;0.70;;
40621;SDS011;26324;52.040;11.528;2023-02-28T09:22:41;2.45;;;1.25;;
40621;SDS011;26324;52.040;11.528;2023-02-28T09:25:11;2.92;;;1.08;;
40621;SDS011;26324;52.040;11.528;2023-02-28T09:27:38;2.17;;;1.40;;
40621;SDS011;26324;52.040;11.528;2023-02-28T09:30:08;2.05;;;1.15;;
40621;SDS011;26324;52.040;11.528;2023-02-28T09:32:35;2.33;;;0.65;;
40621;SDS011;26324;52.040;11.528;2023-02-28T09:35:03;1.30;;;1.02;;
40621;SDS011;26324;52.040;11.528;2023-02-28T09:37:31;1.38;;;0.82;;
40621;SDS011;26324;52.040;11.528;2023-02-28T09:39:58;4.35;;;1.08;;
40621;SDS011;26324;52.040;11.528;2023-02-28T09:42:31;2.38;;;1.25;;
40621;SDS011;26324;52.040;11.528;2023-02-28T09:45:00;2.40;;;0.95;;
40621;SDS011;26324;52.040;11.528;2023-02-28T09:47:34;2.65;;;1.15;;
40621;SDS011;26324;52.040;11.528;2023-02-28T09:52:51;2.45;;;0.82;;
40621;SDS011;26324;52.040;11.528;2023-02-28T09:57:52;2.60;;;0.95;;
40621;SDS011;26324;52.040;11.528;2023-02-28T10:05:58;1.83;;;0.60;;
40621;SDS011;26324;52.040;11.528;2023-02-28T10:08:34;2.17;;;0.57;;
40621;SDS011;26324;52.040;11.528;2023-02-28T10:11:15;3.08;;;0.63;;
40621;SDS011;26324;52.040;11.528;2023-02-28T10:16:36;0.90;;;0.50;;
40621;SDS011;26324;52.040;11.528;2023-02-28T10:19:22;2.15;;;0.95;;
40621;SDS011;26324;52.040;11.528;2023-02-28T10:22:03;1.17;;;0.70;;
40621;SDS011;26324;52.040;11.528;2023-02-28T10:27:16;0.77;;;0.55;;
40621;SDS011;26324;52.040;11.528;2023-02-28T10:29:46;1.38;;;0.80;;
40621;SDS011;26324;52.040;11.528;2023-02-28T10:32:16;1.65;;;0.73;;
40621;SDS011;26324;52.040;11.528;2023-02-28T10:34:51;2.83;;;0.98;;
40621;SDS011;26324;52.040;11.528;2023-02-28T10:37:22;1.67;;;0.77;;
40621;SDS011;26324;52.040;11.528;2023-02-28T10:39:51;1.77;;;0.65;;
40621;SDS011;26324;52.040;11.528;2023-02-28T10:47:57;1.63;;;1.02;;
40621;SDS011;26324;52.040;11.528;2023-02-28T10:50:27;2.22;;;0.75;;
40621;SDS011;26324;52.040;11.528;2023-02-28T10:53:16;1.73;;;0.88;;
40621;SDS011;26324;52.040;11.528;2023-02-28T10:58:46;1.65;;;0.73;;
40621;SDS011;26324;52.040;11.528;2023-02-28T11:03:57;1.88;;;0.80;;
40621;SDS011;26324;52.040;11.528;2023-02-28T11:06:26;1.70;;;0.90;;
40621;SDS011;26324;52.040;11.528;2023-02-28T11:09:00;2.28;;;1.50;;
40621;SDS011;26324;52.040;11.528;2023-02-28T11:11:41;2.70;;;1.40;;
40621;SDS011;26324;52.040;11.528;2023-02-28T11:14:18;1.52;;;0.98;;
40621;SDS011;26324;52.040;11.528;2023-02-28T11:16:47;2.22;;;0.80;;
40621;SDS011;26324;52.040;11.528;2023-02-28T11:19:26;2.95;;;1.00;;
40621;SDS011;26324;52.040;11.528;2023-02-28T11:22:00;2.08;;;1.00;;
40621;SDS011;26324;52.040;11.528;2023-02-28T11:24:35;2.17;;;0.95;;
40621;SDS011;26324;52.040;11.528;2023-02-28T11:27:51;2.50;;;0.90;;
40621;SDS011;26324;52.040;11.528;2023-02-28T11:29:58;2.10;;;1.40;;
40621;SDS011;26324;52.040;11.528;2023-02-28T11:32:27;1.88;;;1.15;;
40621;SDS011;26324;52.040;11.528;2023-02-28T11:35:00;2.47;;;1.02;;
40621;SDS011;26324;52.040;11.528;2023-02-28T11:37:30;4.13;;;1.17;;
40621;SDS011;26324;52.040;11.528;2023-02-28T11:39:59;2.17;;;1.30;;
40621;SDS011;26324;52.040;11.528;2023-02-28T11:48:24;3.05;;;1.42;;
40621;SDS011;26324;52.040;11.528;2023-02-28T11:51:14;2.78;;;1.30;;
40621;SDS011;26324;52.040;11.528;2023-02-28T11:53:58;2.70;;;1.50;;
40621;SDS011;26324;52.040;11.528;2023-02-28T11:56:30;2.35;;;1.30;;
40621;SDS011;26324;52.040;11.528;2023-02-28T12:10:56;2.70;;;1.27;;
40621;SDS011;26324;52.040;11.528;2023-02-28T12:16:27;2.22;;;1.25;;
40621;SDS011;26324;52.040;11.528;2023-02-28T12:19:16;2.25;;;1.23;;
40621;SDS011;26324;52.040;11.528;2023-02-28T12:27:39;2.90;;;1.42;;
40621;SDS011;26324;52.040;11.528;2023-02-28T12:33:07;1.88;;;0.90;;
40621;SDS011;26324;52.040;11.528;2023-02-28T12:35:38;2.72;;;1.20;;
40621;SDS011;26324;52.040;11.528;2023-02-28T12:38:14;2.22;;;1.27;;
40621;SDS011;26324;52.040;11.528;2023-02-28T12:40:50;4.28;;;1.40;;
40621;SDS011;26324;52.040;11.528;2023-02-28T12:43:39;4.15;;;1.42;;
40621;SDS011;26324;52.040;11.528;2023-02-28T12:48:59;2.03;;;0.98;;
40621;SDS011;26324;52.040;11.528;2023-02-28T12:51:34;2.08;;;1.05;;
40621;SDS011;26324;52.040;11.528;2023-02-28T12:54:05;3.00;;;1.20;;
40621;SDS011;26324;52.040;11.528;2023-02-28T12:56:53;2.70;;;0.90;;
40621;SDS011;26324;52.040;11.528;2023-02-28T12:59:36;1.10;;;0.80;;
40621;SDS011;26324;52.040;11.528;2023-02-28T13:11:07;4.88;;;2.67;;
40621;SDS011;26324;52.040;11.528;2023-02-28T13:13:56;2.80;;;1.27;;
40621;SDS011;26324;52.040;11.528;2023-02-28T13:16:25;2.28;;;1.33;;
40621;SDS011;26324;52.040;11.528;2023-02-28T13:18:53;3.05;;;1.20;;
40621;SDS011;26324;52.040;11.528;2023-02-28T13:21:41;2.33;;;1.40;;
40621;SDS011;26324;52.040;11.528;2023-02-28T13:24:11;2.20;;;0.98;;
40621;SDS011;26324;52.040;11.528;2023-02-28T13:29:37;1.50;;;1.15;;
40621;SDS011;26324;52.040;11.528;2023-02-28T13:34:36;14.18;;;5.63;;
40621;SDS011;26324;52.040;11.528;2023-02-28T13:39:46;2.50;;;1.33;;
40621;SDS011;26324;52.040;11.528;2023-02-28T13:47:42;2.08;;;1.35;;
40621;SDS011;26324;52.040;11.528;2023-02-28T13:50:31;6.70;;;3.00;;
40621;SDS011;26324;52.040;11.528;2023-02-28T13:58:39;2.22;;;1.30;;
40621;SDS011;26324;52.040;11.528;2023-02-28T14:04:22;2.78;;;1.63;;
40621;SDS011;26324;52.040;11.528;2023-02-28T14:07:32;2.28;;;1.15;;
40621;SDS011;26324;52.040;11.528;2023-02-28T14:10:07;3.35;;;1.52;;
40621;SDS011;26324;52.040;11.528;2023-02-28T14:13:00;2.40;;;1.60;;
40621;SDS011;26324;52.040;11.528;2023-02-28T14:18:23;2.10;;;1.70;;
40621;SDS011;26324;52.040;11.528;2023-02-28T14:21:14;2.25;;;1.35;;
40621;SDS011;26324;52.040;11.528;2023-02-28T14:24:03;2.80;;;1.40;;
40621;SDS011;26324;52.040;11.528;2023-02-28T14:27:03;2.13;;;1.60;;
40621;SDS011;26324;52.040;11.528;2023-02-28T14:37:49;2.72;;;1.60;;
40621;SDS011;26324;52.040;11.528;2023-02-28T14:40:19;2.15;;;1.65;;
40621;SDS011;26324;52.040;11.528;2023-02-28T14:42:57;2.70;;;1.60;;
40621;SDS011;26324;52.040;11.528;2023-02-28T14:45:27;1.63;;;1.20;;
40621;SDS011;26324;52.040;11.528;2023-02-28T14:47:57;2.75;;;1.40;;
40621;SDS011;26324;52.040;11.528;2023-02-28T14:52:56;2.70;;;1.20;;
40621;SDS011;26324;52.040;11.528;2023-02-28T14:55:26;4.60;;;1.70;;
40621;SDS011;26324;52.040;11.528;2023-02-28T14:57:57;2.85;;;1.42;;
40621;SDS011;26324;52.040;11.528;2023-02-28T15:00:27;1.92;;;1.45;;
40621;SDS011;26324;52.040;11.528;2023-02-28T15:02:56;2.45;;;1.42;;
40621;SDS011;26324;52.040;11.528;2023-02-28T15:05:30;3.42;;;1.70;;
40621;SDS011;26324;52.040;11.528;2023-02-28T15:10:42;3.25;;;1.77;;
40621;SDS011;26324;52.040;11.528;2023-02-28T15:13:12;2.40;;;1.60;;
40621;SDS011;26324;52.040;11.528;2023-02-28T15:21:12;2.13;;;1.33;;
40621;SDS011;26324;52.040;11.528;2023-02-28T15:23:45;3.30;;;1.52;;
40621;SDS011;26324;52.040;11.528;2023-02-28T15:26:17;3.40;;;1.65;;
40621;SDS011;26324;52.040;11.528;2023-02-28T15:28:51;3.10;;;1.50;;
40621;SDS011;26324;52.040;11.528;2023-02-28T15:31:28;2.15;;;1.23;;
40621;SDS011;26324;52.040;11.528;2023-02-28T15:34:40;2.83;;;1.38;;
40621;SDS011;26324;52.040;11.528;2023-02-28T15:40:17;3.53;;;1.70;;
40621;SDS011;26324;52.040;11.528;2023-02-28T15:45:32;2.17;;;1.40;;
40621;SDS011;26324;52.040;11.528;2023-02-28T15:48:17;3.10;;;1.52;;
40621;SDS011;26324;52.040;11.528;2023-02-28T15:50:54;3.28;;;1.40;;
40621;SDS011;26324;52.040;11.528;2023-02-28T15:53:47;2.20;;;1.70;;
40621;SDS011;26324;52.040;11.528;2023-02-28T15:56:31;4.32;;;1.80;;
40621;SDS011;26324;52.040;11.528;2023-02-28T15:59:04;2.40;;;1.40;;
40621;SDS011;26324;52.040;11.528;2023-02-28T16:01:34;1.73;;;1.42;;
40621;SDS011;26324;52.040;11.528;2023-02-28T16:04:03;2.88;;;1.55;;
40621;SDS011;26324;52.040;11.528;2023-02-28T16:09:25;3.30;;;1.80;;
40621;SDS011;26324;52.040;11.528;2023-02-28T16:14:22;2.33;;;1.38;;
40621;SDS011;26324;52.040;11.528;2023-02-28T16:16:53;2.47;;;1.42;;
40621;SDS011;26324;52.040;11.528;2023-02-28T16:19:22;2.45;;;1.38;;
40621;SDS011;26324;52.040;11.528;2023-02-28T16:21:50;2.33;;;1.35;;
40621;SDS011;26324;52.040;11.528;2023-02-28T16:24:18;3.65;;;1.45;;
40621;SDS011;26324;52.040;11.528;2023-02-28T16:26:46;3.42;;;1.60;;
40621;SDS011;26324;52.040;11.528;2023-02-28T16:29:17;3.80;;;1.25;;
40621;SDS011;26324;52.040;11.528;2023-02-28T16:32:06;3.45;;;1.25;;
40621;SDS011;26324;52.040;11.528;2023-02-28T16:34:34;2.83;;;1.17;;
40621;SDS011;26324;52.040;11.528;2023-02-28T16:37:01;3.17;;;1.25;;
40621;SDS011;26324;52.040;11.528;2023-02-28T16:39:28;3.30;;;1.17;;
40621;SDS011;26324;52.040;11.528;2023-02-28T16:41:55;5.10;;;1.70;;
40621;SDS011;26324;52.040;11.528;2023-02-28T16:46:54;2.50;;;1.38;;
40621;SDS011;26324;52.040;11.528;2023-02-28T16:49:22;2.10;;;1.17;;
40621;SDS011;26324;52.040;11.528;2023-02-28T16:51:52;2.17;;;1.25;;
40621;SDS011;26324;52.040;11.528;2023-02-28T16:54:20;1.98;;;1.10;;
40621;SDS011;26324;52.040;11.528;2023-02-28T16:56:47;3.88;;;1.45;;
40621;SDS011;26324;52.040;11.528;2023-02-28T16:59:23;2.70;;;1.08;;
40621;SDS011;26324;52.040;11.528;2023-02-28T17:01:55;1.92;;;1.33;;
40621;SDS011;26324;52.040;11.528;2023-02-28T17:04:25;3.65;;;1.90;;
40621;SDS011;26324;52.040;11.528;2023-02-28T17:06:53;4.93;;;1.50;;
40621;SDS011;26324;52.040;11.528;2023-02-28T17:09:21;6.03;;;1.83;;
40621;SDS011;26324;52.040;11.528;2023-02-28T17:11:59;8.45;;;2.67;;
40621;SDS011;26324;52.040;11.528;2023-02-28T17:14:26;7.65;;;1.88;;
40621;SDS011;26324;52.040;11.528;2023-02-28T17:16:53;4.55;;;1.60;;
40621;SDS011;26324;52.040;11.528;2023-02-28T17:19:21;5.03;;;1.42;;
40621;SDS011;26324;52.040;11.528;2023-02-28T17:21:48;2.50;;;0.63;;
40621;SDS011;26324;52.040;11.528;2023-02-28T17:24:15;23.05;;;9.70;;
40621;SDS011;26324;52.040;11.528;2023-02-28T17:26:57;15.38;;;7.30;;
40621;SDS011;26324;52.040;11.528;2023-02-28T17:31:52;8.90;;;4.25;;
40621;SDS011;26324;52.040;11.528;2023-02-28T17:34:19;13.38;;;3.85;;
40621;SDS011;26324;52.040;11.528;2023-02-28T17:36:47;7.35;;;2.92;;
40621;SDS011;26324;52.040;11.528;2023-02-28T17:39:17;5.20;;;2.10;;
40621;SDS011;26324;52.040;11.528;2023-02-28T17:41:51;2.97;;;1.77;;
40621;SDS011;26324;52.040;11.528;2023-02-28T17:44:25;2.05;;;1.20;;
40621;SDS011;26324;52.040;11.528;2023-02-28T17:46:53;13.73;;;6.10;;
40621;SDS011;26324;52.040;11.528;2023-02-28T17:49:21;31.15;;;12.15;;
40621;SDS011;26324;52.040;11.528;2023-02-28T17:51:49;29.08;;;10.95;;
40621;SDS011;26324;52.040;11.528;2023-02-28T17:54:17;21.73;;;8.63;;
40621;SDS011;26324;52.040;11.528;2023-02-28T17:56:45;116.25;;;36.88;;
40621;SDS011;26324;52.040;11.528;2023-02-28T17:59:13;42.03;;;17.13;;
40621;SDS011;26324;52.040;11.528;2023-02-28T18:01:40;17.05;;;6.13;;